Hauptseite
Satellitenwetter 15-Tage PrognosenKlimaSeewetter Wirbelstürme Blitz FlughäfenFAQ Newsletter Über uns
Wetter : Europa Afrika Nordamerika Südamerika Asien Australien-Ozeanien Andere
Sprachen Kontakt

Frankfurt, Deutschland

Breite: 50-03N, Länge: 008-36E, Höhe: 111 m


METAR: EDDF 281120Z 07015KT 9999 BKN012 05/02 Q1011 NOSIG
TAF: EDDF 281100Z 2812/2918 05010KT 9999 SCT012 BKN020 TEMPO 2812/2910 BKN010

Zeit: 12:53 (11:53 UTC)

Beobachtung

Neuester Wetterbericht von vor 33 Minuten, um 11:20 UTC
Wind 15 kt aus Ost/Nordost
Temperatur 5°C
Luftfeuchtigkeit 81%
Luftdruck 1011 hPa
Sichtweite 10 km oder mehr
Durchbrochene Bewölkung in der Höhe von 1200 ft

Maßeinheiten ändern

Prognose

Neuester Wetterbericht von vor 53 Minuten, um 11:00 UTC
Gültige Prognose vom 28 um 12 UTC bis 29 um 18 UTC
Wind 10 kt aus Nordost
Sichtweite 10 km oder mehr
Aufgelockert bewölkt in der Höhe von 1200 ft
Durchbrochene Bewölkung in der Höhe von 2000 ft
Zeitweise
vom 28 um 12 UTC bis 29 um 10 UTC
Durchbrochene Bewölkung in der Höhe von 1000 ft
Die Angaben auf diesen Webseiten unterliegen einer Erklärung über den Haftungsausschluss
Wetter : Europa Afrika Nordamerika Südamerika Asien Australien-Ozeanien Andere
Satellitenwetter 15-Tage PrognosenKlimaSeewetter Wirbelstürme Blitz FlughäfenFAQ Sprachen Kontakt Newsletter Über uns